YMAV Airport Information

Runway Information
Runway 18 Length 10000 ft width 148 ft
Elevation 32 ft Threshold 0 ft Heading 188
Runway 36 Length 10000 ft Width 148 ft
Elevation 34 ft Threshold 0 ft Heading 8
Airport Frequencies
Type ATIS Name ATIS Frequency 116.1 MHZ
Type CTAF Name CTAF Frequency 120.1 MHZ
Type FSS Name MELBOURNE Frequency 135.7 MHZ
Type TWR Name TWR Frequency 120.1 MHZ
Type UNIC Name FLIGHT OPS Frequency 129.3 MHZ
Airport Navaids
Type VOR-DME Name Avalon Frequency 116100 KHZ
Type NDB Name Avalon Frequency 404 KHZ
Type NDB Name Ripley (Decommissioned) Frequency 224 KHZ
Airport Weather Information & NOTAM
ADDS - METARS form results

(2342 UTC 11 November 2019)
Data provider http://aviationweather.gov/metar/data/
 
METAR text: YMAV 112331Z AUTO 26019G29KT 9999 // SCT037 BKN048 OVC059 14/06 Q1009
Conditions at: YMAV (AVALON AIRPORT , AU) observed 2331 UTC 11 November 2019
Temperature: 14.0°C (57°F)
Dewpoint: 6.0°C (43°F) [RH = 58%]
Pressure (altimeter): 29.79 inches Hg (1009.0 mb)
Winds: from the W (260 degrees) at 22 MPH (19 knots; 9.8 m/s)
gusting to 33 MPH (29 knots; 14.9 m/s)
Visibility: 6 or more miles (10+ km)
Ceiling: 4800 feet AGL
Clouds: scattered clouds at 3700 feet AGL
broken clouds at 4800 feet AGL
overcast cloud deck at 5900 feet AGL
Weather: no significant weather observed at this time

METAR text: YMAV 112313Z AUTO 25019G30KT 9999 // SCT037 SCT045 BKN056 14/06 Q1008
Conditions at: YMAV (AVALON AIRPORT , AU) observed 2313 UTC 11 November 2019
Temperature: 14.0°C (57°F)
Dewpoint: 6.0°C (43°F) [RH = 58%]
Pressure (altimeter): 29.76 inches Hg (1008.0 mb)
Winds: from the WSW (250 degrees) at 22 MPH (19 knots; 9.8 m/s)
gusting to 34 MPH (30 knots; 15.4 m/s)
Visibility: 6 or more miles (10+ km)
Ceiling: 5600 feet AGL
Clouds: scattered clouds at 3700 feet AGL
scattered clouds at 4500 feet AGL
broken clouds at 5600 feet AGL
Weather: no significant weather observed at this time

METAR text: YMAV 112300Z AUTO 25017KT 9999 // SCT030 SCT037 SCT045 14/06 Q1008
Conditions at: YMAV (AVALON AIRPORT , AU) observed 2300 UTC 11 November 2019
Temperature: 14.0°C (57°F)
Dewpoint: 6.0°C (43°F) [RH = 58%]
Pressure (altimeter): 29.76 inches Hg (1008.0 mb)
Winds: from the WSW (250 degrees) at 20 MPH (17 knots; 8.7 m/s)
Visibility: 6 or more miles (10+ km)
Ceiling: at least 12,000 feet AGL
Clouds: scattered clouds at 3000 feet AGL
scattered clouds at 3700 feet AGL
scattered clouds at 4500 feet AGL
Weather: no significant weather observed at this time

METAR text: YMAV 112251Z AUTO 25016G26KT 9999 // SCT030 SCT037 BKN043 12/08 Q1008
Conditions at: YMAV (AVALON AIRPORT , AU) observed 2251 UTC 11 November 2019
Temperature: 12.0°C (54°F)
Dewpoint: 8.0°C (46°F) [RH = 76%]
Pressure (altimeter): 29.76 inches Hg (1008.0 mb)
Winds: from the WSW (250 degrees) at 18 MPH (16 knots; 8.2 m/s)
gusting to 30 MPH (26 knots; 13.4 m/s)
Visibility: 6 or more miles (10+ km)
Ceiling: 4300 feet AGL
Clouds: scattered clouds at 3000 feet AGL
scattered clouds at 3700 feet AGL
broken clouds at 4300 feet AGL
Weather: no significant weather observed at this time

Forecast for: AMD
Text: TAF AMD YMAV 112312Z 1200/1300 24015G25KT 9999 -SHRA FEW025 SCT035
Forecast period: 0000 to 0900 UTC 12 November 2019
Forecast type: FROM: standard forecast or significant change
Winds: from the WSW (240 degrees) at 17 MPH (15 knots; 7.7 m/s)
gusting to 29 MPH (25 knots; 12.9 m/s)
Visibility: 6 or more miles 10+ km)
Ceiling: at least 12,000 feet AGL
Clouds: few clouds at 2500 feet AGL
scattered clouds at 3500 feet AGL
Weather: -SHRA  (light rain showers)
Text: FM120900 27012KT 9999 -SHRA SCT030
Forecast period: 0900 to 2100 UTC 12 November 2019
Forecast type: FROM: standard forecast or significant change
Winds: from the W (270 degrees) at 14 MPH (12 knots; 6.2 m/s)
Visibility: 6 or more miles 10+ km)
Ceiling: at least 12,000 feet AGL
Clouds: scattered clouds at 3000 feet AGL
Weather: -SHRA  (light rain showers)
Text: FM122100 25015G25KT 9999 -SHRA SCT030 SCT040 INTER 1202/1209 24020G32KT 6000 SHRA SCT025 BKN035
Forecast period: 2100 UTC 12 November 2019 to 0000 UTC 13 November 2019
Forecast type: FROM: standard forecast or significant change
Winds: from the WSW (250 degrees) at 17 MPH (15 knots; 7.7 m/s)
gusting to 29 MPH (25 knots; 12.9 m/s)
Visibility: 6 or more miles 10+ km)
Ceiling: at least 12,000 feet AGL
Clouds: scattered clouds at 3000 feet AGL
scattered clouds at 4000 feet AGL
Weather: -SHRA  (light rain showers)
Text:
Forecast period: 0200 to 0900 UTC 12 November 2019
Forecast type: TEMPORARY: The following changes expected for less than half the time period
Winds: from the WSW (240 degrees) at 23 MPH (20 knots; 10.3 m/s)
gusting to 37 MPH (32 knots; 16.5 m/s)
Visibility: 4 miles (6 km)
Ceiling: 3500 feet AGL
Clouds: scattered clouds at 2500 feet AGL
broken clouds at 3500 feet AGL
Weather: SHRA  (rain showers)

Contacts Infinite Flight LiveFlight Admin Panel 

© Qantas Virtual Group